sensor_id;sensor_type;location;lat;lon;timestamp;pressure;altitude;pressure_sealevel;temperature;humidity
38912;BME280;28444;48.056;14.408;2022-07-12T00:01:57;98167.41;;;14.86;82.18
38912;BME280;28444;48.056;14.408;2022-07-12T00:04:26;98165.66;;;14.81;83.50
38912;BME280;28444;48.056;14.408;2022-07-12T00:06:53;98162.78;;;14.79;83.46
38912;BME280;28444;48.056;14.408;2022-07-12T00:09:20;98164.22;;;14.80;83.74
38912;BME280;28444;48.056;14.408;2022-07-12T00:11:47;98163.34;;;14.78;83.28
38912;BME280;28444;48.056;14.408;2022-07-12T00:14:14;98167.84;;;14.83;82.84
38912;BME280;28444;48.056;14.408;2022-07-12T00:16:40;98164.25;;;14.90;82.80
38912;BME280;28444;48.056;14.408;2022-07-12T00:19:08;98162.22;;;15.00;82.39
38912;BME280;28444;48.056;14.408;2022-07-12T00:21:35;98162.78;;;14.99;82.35
38912;BME280;28444;48.056;14.408;2022-07-12T00:24:02;98158.88;;;14.92;82.47
38912;BME280;28444;48.056;14.408;2022-07-12T00:26:29;98156.44;;;14.96;82.14
38912;BME280;28444;48.056;14.408;2022-07-12T00:28:55;98151.50;;;14.95;82.32
38912;BME280;28444;48.056;14.408;2022-07-12T00:31:24;98159.91;;;14.97;82.28
38912;BME280;28444;48.056;14.408;2022-07-12T00:33:50;98138.72;;;14.99;82.31
38912;BME280;28444;48.056;14.408;2022-07-12T00:36:17;98155.69;;;14.96;82.11
38912;BME280;28444;48.056;14.408;2022-07-12T00:38:44;98138.44;;;14.85;82.83
38912;BME280;28444;48.056;14.408;2022-07-12T00:41:10;98140.63;;;14.87;82.49
38912;BME280;28444;48.056;14.408;2022-07-12T00:43:37;98150.47;;;14.90;82.48
38912;BME280;28444;48.056;14.408;2022-07-12T00:46:04;98142.34;;;14.92;82.52
38912;BME280;28444;48.056;14.408;2022-07-12T00:48:35;98143.66;;;14.91;82.94
38912;BME280;28444;48.056;14.408;2022-07-12T00:51:02;98150.03;;;14.93;82.69
38912;BME280;28444;48.056;14.408;2022-07-12T00:53:29;98143.94;;;14.95;82.20
38912;BME280;28444;48.056;14.408;2022-07-12T00:55:57;98147.44;;;15.05;82.36
38912;BME280;28444;48.056;14.408;2022-07-12T00:58:25;98147.16;;;15.01;82.11
38912;BME280;28444;48.056;14.408;2022-07-12T01:00:55;98152.66;;;15.01;81.79
38912;BME280;28444;48.056;14.408;2022-07-12T01:03:22;98142.06;;;14.98;82.24
38912;BME280;28444;48.056;14.408;2022-07-12T01:05:49;98142.34;;;14.92;82.43
38912;BME280;28444;48.056;14.408;2022-07-12T01:08:16;98140.03;;;14.88;82.54
38912;BME280;28444;48.056;14.408;2022-07-12T01:10:44;98147.56;;;14.88;82.33
38912;BME280;28444;48.056;14.408;2022-07-12T01:13:11;98145.41;;;14.86;81.93
38912;BME280;28444;48.056;14.408;2022-07-12T01:15:39;98143.50;;;14.79;82.25
38912;BME280;28444;48.056;14.408;2022-07-12T01:18:07;98143.06;;;14.83;82.54
38912;BME280;28444;48.056;14.408;2022-07-12T01:20:34;98140.44;;;14.85;82.21
38912;BME280;28444;48.056;14.408;2022-07-12T01:23:01;98150.03;;;14.84;82.55
38912;BME280;28444;48.056;14.408;2022-07-12T01:25:28;98144.94;;;14.80;82.06
38912;BME280;28444;48.056;14.408;2022-07-12T01:27:55;98142.06;;;14.88;82.01
38912;BME280;28444;48.056;14.408;2022-07-12T01:30:22;98143.97;;;14.85;82.33
38912;BME280;28444;48.056;14.408;2022-07-12T01:32:49;98140.44;;;14.85;82.86
38912;BME280;28444;48.056;14.408;2022-07-12T01:35:17;98143.78;;;14.83;82.63
38912;BME280;28444;48.056;14.408;2022-07-12T01:37:44;98143.53;;;14.89;82.69
38912;BME280;28444;48.056;14.408;2022-07-12T01:40:13;98141.47;;;14.99;82.47
38912;BME280;28444;48.056;14.408;2022-07-12T01:42:40;98136.41;;;14.96;82.35
38912;BME280;28444;48.056;14.408;2022-07-12T01:45:08;98138.31;;;14.93;82.42
38912;BME280;28444;48.056;14.408;2022-07-12T01:47:35;98140.19;;;14.90;82.93
38912;BME280;28444;48.056;14.408;2022-07-12T01:50:11;98137.28;;;14.88;82.80
38912;BME280;28444;48.056;14.408;2022-07-12T01:52:39;98141.34;;;14.87;83.27
38912;BME280;28444;48.056;14.408;2022-07-12T01:55:07;98142.34;;;14.82;83.43
38912;BME280;28444;48.056;14.408;2022-07-12T01:57:34;98148.00;;;14.84;83.51
38912;BME280;28444;48.056;14.408;2022-07-12T02:00:04;98146.28;;;14.89;82.97
38912;BME280;28444;48.056;14.408;2022-07-12T02:02:32;98148.16;;;14.96;83.23
38912;BME280;28444;48.056;14.408;2022-07-12T02:05:00;98145.41;;;14.96;82.96
38912;BME280;28444;48.056;14.408;2022-07-12T02:07:27;98148.59;;;15.02;82.83
38912;BME280;28444;48.056;14.408;2022-07-12T02:09:54;98138.28;;;15.03;82.88
38912;BME280;28444;48.056;14.408;2022-07-12T02:12:21;98139.47;;;15.09;83.03
38912;BME280;28444;48.056;14.408;2022-07-12T02:14:49;98148.31;;;15.08;82.71
38912;BME280;28444;48.056;14.408;2022-07-12T02:17:16;98148.47;;;15.00;83.37
38912;BME280;28444;48.056;14.408;2022-07-12T02:19:44;98146.28;;;14.99;82.97
38912;BME280;28444;48.056;14.408;2022-07-12T02:22:10;98142.94;;;15.00;83.00
38912;BME280;28444;48.056;14.408;2022-07-12T02:24:37;98144.56;;;15.03;83.09
38912;BME280;28444;48.056;14.408;2022-07-12T02:27:05;98148.88;;;15.06;82.73
38912;BME280;28444;48.056;14.408;2022-07-12T02:29:32;98149.31;;;15.03;83.01
38912;BME280;28444;48.056;14.408;2022-07-12T02:32:00;98159.59;;;15.02;82.33
38912;BME280;28444;48.056;14.408;2022-07-12T02:34:27;98161.78;;;15.04;82.94
38912;BME280;28444;48.056;14.408;2022-07-12T02:36:53;98158.75;;;15.09;83.06
38912;BME280;28444;48.056;14.408;2022-07-12T02:39:20;98154.25;;;15.14;82.82
38912;BME280;28444;48.056;14.408;2022-07-12T02:41:47;98149.16;;;15.10;83.56
38912;BME280;28444;48.056;14.408;2022-07-12T02:44:13;98150.63;;;15.11;83.06
38912;BME280;28444;48.056;14.408;2022-07-12T02:46:40;98141.78;;;15.13;83.26
38912;BME280;28444;48.056;14.408;2022-07-12T02:49:07;98147.56;;;15.17;82.99
38912;BME280;28444;48.056;14.408;2022-07-12T02:51:34;98144.84;;;15.27;82.34
38912;BME280;28444;48.056;14.408;2022-07-12T02:54:01;98152.22;;;15.34;82.70
38912;BME280;28444;48.056;14.408;2022-07-12T02:56:27;98152.22;;;15.34;82.70
38912;BME280;28444;48.056;14.408;2022-07-12T02:58:54;98149.47;;;15.34;82.44
38912;BME280;28444;48.056;14.408;2022-07-12T03:01:21;98150.47;;;15.38;82.54
38912;BME280;28444;48.056;14.408;2022-07-12T03:03:48;98149.31;;;15.32;83.08
38912;BME280;28444;48.056;14.408;2022-07-12T03:06:14;98155.69;;;15.34;83.11
38912;BME280;28444;48.056;14.408;2022-07-12T03:08:42;98158.16;;;15.40;83.00
38912;BME280;28444;48.056;14.408;2022-07-12T03:11:09;98161.38;;;15.36;83.22
38912;BME280;28444;48.056;14.408;2022-07-12T03:13:35;98164.84;;;15.37;83.11
38912;BME280;28444;48.056;14.408;2022-07-12T03:16:02;98164.25;;;15.38;83.61
38912;BME280;28444;48.056;14.408;2022-07-12T03:18:29;98169.91;;;15.40;83.63
38912;BME280;28444;48.056;14.408;2022-07-12T03:20:57;98157.13;;;15.35;83.49
38912;BME280;28444;48.056;14.408;2022-07-12T03:23:25;98168.75;;;15.24;83.55
38912;BME280;28444;48.056;14.408;2022-07-12T03:25:51;98172.09;;;15.23;83.50
38912;BME280;28444;48.056;14.408;2022-07-12T03:28:19;98175.72;;;15.25;83.57
38912;BME280;28444;48.056;14.408;2022-07-12T03:30:45;98177.44;;;15.30;83.53
38912;BME280;28444;48.056;14.408;2022-07-12T03:33:12;98185.13;;;15.32;83.34
38912;BME280;28444;48.056;14.408;2022-07-12T03:35:39;98183.69;;;15.31;83.76
38912;BME280;28444;48.056;14.408;2022-07-12T03:38:06;98187.31;;;15.33;83.85
38912;BME280;28444;48.056;14.408;2022-07-12T03:40:32;98193.53;;;15.34;84.25
38912;BME280;28444;48.056;14.408;2022-07-12T03:43:01;98196.31;;;15.34;84.33
38912;BME280;28444;48.056;14.408;2022-07-12T03:45:27;98198.75;;;15.39;83.43
38912;BME280;28444;48.056;14.408;2022-07-12T03:47:54;98209.34;;;15.33;83.65
38912;BME280;28444;48.056;14.408;2022-07-12T03:50:21;98201.66;;;15.32;84.65
38912;BME280;28444;48.056;14.408;2022-07-12T03:52:48;98199.50;;;15.30;84.79
38912;BME280;28444;48.056;14.408;2022-07-12T03:55:15;98203.69;;;15.31;84.83
38912;BME280;28444;48.056;14.408;2022-07-12T03:57:42;98207.03;;;15.39;84.33
38912;BME280;28444;48.056;14.408;2022-07-12T04:00:10;98205.16;;;15.42;83.57
38912;BME280;28444;48.056;14.408;2022-07-12T04:02:40;98210.38;;;15.48;83.52
38912;BME280;28444;48.056;14.408;2022-07-12T04:05:08;98196.72;;;15.59;83.04
38912;BME280;28444;48.056;14.408;2022-07-12T04:07:36;98198.44;;;15.64;82.68
38912;BME280;28444;48.056;14.408;2022-07-12T04:10:03;98202.53;;;15.63;83.08
38912;BME280;28444;48.056;14.408;2022-07-12T04:12:30;98198.44;;;15.64;82.47
38912;BME280;28444;48.056;14.408;2022-07-12T04:14:57;98199.19;;;15.75;82.67
38912;BME280;28444;48.056;14.408;2022-07-12T04:17:24;98198.31;;;15.72;82.16
38912;BME280;28444;48.056;14.408;2022-07-12T04:19:51;98202.41;;;15.71;82.31
38912;BME280;28444;48.056;14.408;2022-07-12T04:22:17;98200.34;;;15.72;82.74
38912;BME280;28444;48.056;14.408;2022-07-12T04:24:44;98200.06;;;15.68;82.70
38912;BME280;28444;48.056;14.408;2022-07-12T04:27:11;98200.66;;;15.66;82.58
38912;BME280;28444;48.056;14.408;2022-07-12T04:29:37;98204.31;;;15.69;82.63
38912;BME280;28444;48.056;14.408;2022-07-12T04:32:04;98195.72;;;15.74;83.05
38912;BME280;28444;48.056;14.408;2022-07-12T04:34:31;98197.75;;;15.74;82.97
38912;BME280;28444;48.056;14.408;2022-07-12T04:36:58;98208.22;;;15.66;83.38
38912;BME280;28444;48.056;14.408;2022-07-12T04:39:24;98202.84;;;15.68;83.27
38912;BME280;28444;48.056;14.408;2022-07-12T04:41:51;98210.22;;;15.65;84.37
38912;BME280;28444;48.056;14.408;2022-07-12T04:44:18;98208.03;;;15.63;84.85
38912;BME280;28444;48.056;14.408;2022-07-12T04:46:45;98203.72;;;15.70;84.66
38912;BME280;28444;48.056;14.408;2022-07-12T04:49:11;98205.59;;;15.68;85.27
38912;BME280;28444;48.056;14.408;2022-07-12T04:51:38;98208.34;;;15.68;84.95
38912;BME280;28444;48.056;14.408;2022-07-12T04:54:05;98210.97;;;15.66;84.46
38912;BME280;28444;48.056;14.408;2022-07-12T04:56:32;98209.06;;;15.68;83.92
38912;BME280;28444;48.056;14.408;2022-07-12T04:58:58;98208.78;;;15.74;83.63
38912;BME280;28444;48.056;14.408;2022-07-12T05:01:29;98212.84;;;15.73;84.13
38912;BME280;28444;48.056;14.408;2022-07-12T05:03:56;98216.78;;;15.70;83.92
38912;BME280;28444;48.056;14.408;2022-07-12T05:06:22;98213.13;;;15.67;84.29
38912;BME280;28444;48.056;14.408;2022-07-12T05:08:50;98210.22;;;15.65;84.47
38912;BME280;28444;48.056;14.408;2022-07-12T05:11:17;98219.09;;;15.73;84.49
38912;BME280;28444;48.056;14.408;2022-07-12T05:13:44;98225.88;;;15.72;84.49
38912;BME280;28444;48.056;14.408;2022-07-12T05:16:11;98226.78;;;15.75;84.44
38912;BME280;28444;48.056;14.408;2022-07-12T05:18:37;98224.00;;;15.75;84.25
38912;BME280;28444;48.056;14.408;2022-07-12T05:21:04;98242.44;;;15.72;85.08
38912;BME280;28444;48.056;14.408;2022-07-12T05:23:31;98239.09;;;15.74;86.69
38912;BME280;28444;48.056;14.408;2022-07-12T05:25:58;98236.78;;;15.80;87.15
38912;BME280;28444;48.056;14.408;2022-07-12T05:28:25;98236.63;;;15.87;86.69
38912;BME280;28444;48.056;14.408;2022-07-12T05:30:52;98234.88;;;15.92;85.78
38912;BME280;28444;48.056;14.408;2022-07-12T05:33:19;98244.31;;;15.89;85.55
38912;BME280;28444;48.056;14.408;2022-07-12T05:35:47;98238.34;;;16.02;84.62
38912;BME280;28444;48.056;14.408;2022-07-12T05:38:13;98233.22;;;16.08;84.40
38912;BME280;28444;48.056;14.408;2022-07-12T05:40:40;98242.38;;;16.11;84.56
38912;BME280;28444;48.056;14.408;2022-07-12T05:43:07;98244.56;;;16.12;84.45
38912;BME280;28444;48.056;14.408;2022-07-12T05:45:33;98243.38;;;16.16;85.30
38912;BME280;28444;48.056;14.408;2022-07-12T05:48:00;98251.22;;;16.19;85.08
38912;BME280;28444;48.056;14.408;2022-07-12T05:50:27;98246.00;;;16.13;84.22
38912;BME280;28444;48.056;14.408;2022-07-12T05:52:54;98249.06;;;16.18;84.25
38912;BME280;28444;48.056;14.408;2022-07-12T05:55:40;98258.78;;;16.19;83.97
38912;BME280;28444;48.056;14.408;2022-07-12T05:58:07;98258.66;;;16.17;84.25
38912;BME280;28444;48.056;14.408;2022-07-12T06:00:33;98256.91;;;16.11;84.41
38912;BME280;28444;48.056;14.408;2022-07-12T06:03:01;98252.84;;;16.12;84.77
38912;BME280;28444;48.056;14.408;2022-07-12T06:05:28;98260.97;;;16.10;85.65
38912;BME280;28444;48.056;14.408;2022-07-12T06:07:55;98260.25;;;16.10;85.12
38912;BME280;28444;48.056;14.408;2022-07-12T06:10:22;98265.91;;;16.12;84.54
38912;BME280;28444;48.056;14.408;2022-07-12T06:12:48;98263.56;;;16.08;85.71
38912;BME280;28444;48.056;14.408;2022-07-12T06:15:16;98257.94;;;16.06;85.84
38912;BME280;28444;48.056;14.408;2022-07-12T06:17:43;98260.97;;;16.10;85.44
38912;BME280;28444;48.056;14.408;2022-07-12T06:20:10;98272.16;;;16.12;85.34
38912;BME280;28444;48.056;14.408;2022-07-12T06:22:37;98253.41;;;16.11;85.18
38912;BME280;28444;48.056;14.408;2022-07-12T06:25:05;98258.81;;;16.09;85.51
38912;BME280;28444;48.056;14.408;2022-07-12T06:27:52;98265.75;;;16.10;85.06
38912;BME280;28444;48.056;14.408;2022-07-12T06:30:20;98265.91;;;16.12;85.15
38912;BME280;28444;48.056;14.408;2022-07-12T06:32:48;98266.91;;;16.17;85.29
38912;BME280;28444;48.056;14.408;2022-07-12T06:35:16;98257.63;;;16.12;85.79
38912;BME280;28444;48.056;14.408;2022-07-12T06:37:42;98263.56;;;16.08;86.11
38912;BME280;28444;48.056;14.408;2022-07-12T06:40:10;98262.41;;;16.11;86.59
38912;BME280;28444;48.056;14.408;2022-07-12T06:42:37;98253.56;;;16.13;87.08
38912;BME280;28444;48.056;14.408;2022-07-12T06:45:05;98259.38;;;16.17;87.17
38912;BME280;28444;48.056;14.408;2022-07-12T06:47:31;98255.00;;;16.24;86.44
38912;BME280;28444;48.056;14.408;2022-07-12T06:49:58;98266.59;;;16.32;86.60
38912;BME280;28444;48.056;14.408;2022-07-12T06:52:25;98271.91;;;16.49;86.57
38912;BME280;28444;48.056;14.408;2022-07-12T06:54:57;98279.03;;;16.52;86.52
38912;BME280;28444;48.056;14.408;2022-07-12T06:57:24;98273.63;;;16.54;86.84
38912;BME280;28444;48.056;14.408;2022-07-12T06:59:53;98279.16;;;16.54;87.64
38912;BME280;28444;48.056;14.408;2022-07-12T07:02:21;98278.25;;;16.61;88.34
38912;BME280;28444;48.056;14.408;2022-07-12T07:04:48;98280.75;;;16.57;88.22
38912;BME280;28444;48.056;14.408;2022-07-12T07:07:15;98272.91;;;16.54;87.57
38912;BME280;28444;48.056;14.408;2022-07-12T07:09:42;98276.81;;;16.60;88.12
38912;BME280;28444;48.056;14.408;2022-07-12T07:12:09;98279.41;;;16.68;87.45
38912;BME280;28444;48.056;14.408;2022-07-12T07:14:36;98282.69;;;16.86;86.39
38912;BME280;28444;48.056;14.408;2022-07-12T07:17:03;98280.59;;;16.96;84.62
38912;BME280;28444;48.056;14.408;2022-07-12T07:19:30;98282.09;;;17.19;84.19
38912;BME280;28444;48.056;14.408;2022-07-12T07:21:57;98273.75;;;17.28;83.85
38912;BME280;28444;48.056;14.408;2022-07-12T07:24:25;98278.72;;;17.42;82.86
38912;BME280;28444;48.056;14.408;2022-07-12T07:26:53;98273.91;;;17.64;82.08
38912;BME280;28444;48.056;14.408;2022-07-12T07:29:24;98276.59;;;17.73;80.96
38912;BME280;28444;48.056;14.408;2022-07-12T07:32:09;98283.38;;;17.82;80.69
38912;BME280;28444;48.056;14.408;2022-07-12T07:34:36;98279.78;;;18.13;79.90
38912;BME280;28444;48.056;14.408;2022-07-12T07:37:03;98276.66;;;18.18;78.47
38912;BME280;28444;48.056;14.408;2022-07-12T07:39:30;98276.94;;;18.34;78.54
38912;BME280;28444;48.056;14.408;2022-07-12T07:41:56;98275.38;;;18.55;77.81
38912;BME280;28444;48.056;14.408;2022-07-12T07:44:23;98281.94;;;18.83;76.87
38912;BME280;28444;48.056;14.408;2022-07-12T07:46:58;98276.75;;;19.00;74.89
38912;BME280;28444;48.056;14.408;2022-07-12T07:49:25;98273.25;;;19.00;75.24
38912;BME280;28444;48.056;14.408;2022-07-12T07:51:51;98283.13;;;19.03;73.78
38912;BME280;28444;48.056;14.408;2022-07-12T07:54:18;98279.53;;;18.89;73.73
38912;BME280;28444;48.056;14.408;2022-07-12T07:56:45;98286.59;;;18.68;75.57
38912;BME280;28444;48.056;14.408;2022-07-12T07:59:12;98281.28;;;18.61;75.54
38912;BME280;28444;48.056;14.408;2022-07-12T08:01:38;98286.78;;;18.37;76.73
38912;BME280;28444;48.056;14.408;2022-07-12T08:04:21;98285.25;;;18.34;75.28
38912;BME280;28444;48.056;14.408;2022-07-12T08:06:49;98293.06;;;18.38;74.90
38912;BME280;28444;48.056;14.408;2022-07-12T08:09:16;98287.63;;;18.40;75.26
38912;BME280;28444;48.056;14.408;2022-07-12T08:11:43;98292.59;;;18.41;74.44
38912;BME280;28444;48.056;14.408;2022-07-12T08:14:10;98291.25;;;18.42;75.30
38912;BME280;28444;48.056;14.408;2022-07-12T08:16:37;98285.25;;;18.58;74.68
38912;BME280;28444;48.056;14.408;2022-07-12T08:19:05;98283.69;;;18.55;74.35
38912;BME280;28444;48.056;14.408;2022-07-12T08:21:33;98285.25;;;18.69;74.15
38912;BME280;28444;48.056;14.408;2022-07-12T08:23:59;98291.91;;;18.76;73.63
38912;BME280;28444;48.056;14.408;2022-07-12T08:26:26;98291.91;;;18.76;74.16
38912;BME280;28444;48.056;14.408;2022-07-12T08:28:53;98284.69;;;18.71;75.73
38912;BME280;28444;48.056;14.408;2022-07-12T08:31:20;98296.97;;;18.80;74.72
38912;BME280;28444;48.056;14.408;2022-07-12T08:33:47;98292.38;;;18.84;74.36
38912;BME280;28444;48.056;14.408;2022-07-12T08:36:13;98290.47;;;18.75;75.12
38912;BME280;28444;48.056;14.408;2022-07-12T08:38:41;98287.81;;;18.77;75.02
38912;BME280;28444;48.056;14.408;2022-07-12T08:41:12;98293.47;;;18.67;74.59
38912;BME280;28444;48.056;14.408;2022-07-12T08:43:40;98294.41;;;18.60;75.74
38912;BME280;28444;48.056;14.408;2022-07-12T08:46:13;98286.22;;;18.50;75.89
38912;BME280;28444;48.056;14.408;2022-07-12T08:48:41;98286.09;;;18.48;76.48
38912;BME280;28444;48.056;14.408;2022-07-12T08:51:13;98293.56;;;18.58;75.89
38912;BME280;28444;48.056;14.408;2022-07-12T08:53:40;98291.03;;;18.50;75.66
38912;BME280;28444;48.056;14.408;2022-07-12T08:56:30;98291.34;;;18.33;77.38
38912;BME280;28444;48.056;14.408;2022-07-12T08:59:19;98293.16;;;18.28;77.28
38912;BME280;28444;48.056;14.408;2022-07-12T09:01:51;98295.47;;;18.32;77.30
38912;BME280;28444;48.056;14.408;2022-07-12T09:06:46;98298.84;;;18.53;77.53
38912;BME280;28444;48.056;14.408;2022-07-12T09:09:30;98295.84;;;18.61;76.13
38912;BME280;28444;48.056;14.408;2022-07-12T09:11:58;98298.41;;;18.81;75.09
38912;BME280;28444;48.056;14.408;2022-07-12T09:14:25;98303.38;;;18.82;75.07
38912;BME280;28444;48.056;14.408;2022-07-12T09:17:05;98305.03;;;18.99;75.99
38912;BME280;28444;48.056;14.408;2022-07-12T09:19:36;98290.34;;;19.08;75.29
38912;BME280;28444;48.056;14.408;2022-07-12T09:22:04;98305.84;;;19.37;73.38
38912;BME280;28444;48.056;14.408;2022-07-12T09:24:39;98303.19;;;19.39;71.96
38912;BME280;28444;48.056;14.408;2022-07-12T09:27:06;98302.00;;;19.30;72.38
38912;BME280;28444;48.056;14.408;2022-07-12T09:29:46;98304.06;;;19.30;73.71
38912;BME280;28444;48.056;14.408;2022-07-12T09:32:13;98293.69;;;19.30;72.62
38912;BME280;28444;48.056;14.408;2022-07-12T09:34:58;98301.84;;;19.52;72.02
38912;BME280;28444;48.056;14.408;2022-07-12T09:37:43;98301.69;;;19.73;72.18
38912;BME280;28444;48.056;14.408;2022-07-12T09:40:11;98303.25;;;20.02;70.93
38912;BME280;28444;48.056;14.408;2022-07-12T09:42:39;98301.84;;;20.14;70.32
38912;BME280;28444;48.056;14.408;2022-07-12T09:45:08;98303.41;;;20.17;69.49
38912;BME280;28444;48.056;14.408;2022-07-12T09:47:36;98302.31;;;20.23;68.87
38912;BME280;28444;48.056;14.408;2022-07-12T09:50:03;98304.75;;;20.16;69.96
38912;BME280;28444;48.056;14.408;2022-07-12T09:52:31;98308.09;;;20.27;69.72
38912;BME280;28444;48.056;14.408;2022-07-12T09:55:01;98300.25;;;20.23;68.97
38912;BME280;28444;48.056;14.408;2022-07-12T09:57:33;98298.50;;;20.30;69.40
38912;BME280;28444;48.056;14.408;2022-07-12T10:00:01;98296.47;;;20.30;69.10
38912;BME280;28444;48.056;14.408;2022-07-12T10:02:28;98296.63;;;20.20;69.05
38912;BME280;28444;48.056;14.408;2022-07-12T10:04:57;98293.03;;;20.18;68.75
38912;BME280;28444;48.056;14.408;2022-07-12T10:07:26;98294.50;;;20.33;69.17
38912;BME280;28444;48.056;14.408;2022-07-12T10:09:53;98292.22;;;20.15;67.02
38912;BME280;28444;48.056;14.408;2022-07-12T10:12:21;98290.47;;;20.22;67.93
38912;BME280;28444;48.056;14.408;2022-07-12T10:14:53;98290.56;;;20.50;67.19
38912;BME280;28444;48.056;14.408;2022-07-12T10:17:23;98285.75;;;20.64;65.71
38912;BME280;28444;48.056;14.408;2022-07-12T10:22:40;98281.34;;;20.86;65.63
38912;BME280;28444;48.056;14.408;2022-07-12T10:25:29;98276.13;;;20.92;64.49
38912;BME280;28444;48.056;14.408;2022-07-12T10:28:02;98273.63;;;21.12;62.98
38912;BME280;28444;48.056;14.408;2022-07-12T10:30:30;98269.41;;;21.25;63.35
38912;BME280;28444;48.056;14.408;2022-07-12T10:32:58;98273.44;;;21.36;63.80
38912;BME280;28444;48.056;14.408;2022-07-12T10:35:28;98272.47;;;21.31;60.16
38912;BME280;28444;48.056;14.408;2022-07-12T10:38:17;98263.06;;;21.52;58.86
38912;BME280;28444;48.056;14.408;2022-07-12T10:40:45;98266.22;;;21.74;60.67
38912;BME280;28444;48.056;14.408;2022-07-12T10:43:15;98263.56;;;21.62;50.43
38912;BME280;28444;48.056;14.408;2022-07-12T10:45:44;98262.81;;;21.32;55.70
38912;BME280;28444;48.056;14.408;2022-07-12T10:48:29;98256.84;;;21.10;57.71
38912;BME280;28444;48.056;14.408;2022-07-12T10:50:56;98261.69;;;21.10;55.62
38912;BME280;28444;48.056;14.408;2022-07-12T10:53:34;98259.13;;;21.00;54.72
38912;BME280;28444;48.056;14.408;2022-07-12T10:56:22;98251.31;;;20.97;58.74
38912;BME280;28444;48.056;14.408;2022-07-12T10:58:58;98249.81;;;21.23;57.61
38912;BME280;28444;48.056;14.408;2022-07-12T11:01:31;98254.47;;;21.32;55.83
38912;BME280;28444;48.056;14.408;2022-07-12T11:04:09;98251.28;;;21.24;56.50
38912;BME280;28444;48.056;14.408;2022-07-12T11:06:38;98255.50;;;21.39;58.24
38912;BME280;28444;48.056;14.408;2022-07-12T11:09:08;98252.09;;;21.41;58.35
38912;BME280;28444;48.056;14.408;2022-07-12T11:11:41;98248.25;;;21.48;58.45
38912;BME280;28444;48.056;14.408;2022-07-12T11:14:12;98245.81;;;21.40;58.85
38912;BME280;28444;48.056;14.408;2022-07-12T11:16:47;98235.25;;;21.52;57.08
38912;BME280;28444;48.056;14.408;2022-07-12T11:19:21;98238.81;;;21.69;58.27
38912;BME280;28444;48.056;14.408;2022-07-12T11:21:49;98241.47;;;21.80;57.50
38912;BME280;28444;48.056;14.408;2022-07-12T11:24:26;98250.03;;;21.71;54.84
38912;BME280;28444;48.056;14.408;2022-07-12T11:26:53;98237.50;;;21.56;56.42
38912;BME280;28444;48.056;14.408;2022-07-12T11:29:20;98232.09;;;21.44;56.47
38912;BME280;28444;48.056;14.408;2022-07-12T11:31:47;98229.44;;;21.46;56.12
38912;BME280;28444;48.056;14.408;2022-07-12T11:34:22;98232.25;;;21.62;57.27
38912;BME280;28444;48.056;14.408;2022-07-12T11:36:57;98224.28;;;21.70;55.21
38912;BME280;28444;48.056;14.408;2022-07-12T11:39:34;98222.34;;;21.88;56.86
38912;BME280;28444;48.056;14.408;2022-07-12T11:42:02;98222.00;;;21.96;55.73
38912;BME280;28444;48.056;14.408;2022-07-12T11:47:15;98221.78;;;21.76;55.79
38912;BME280;28444;48.056;14.408;2022-07-12T11:49:43;98226.44;;;21.72;55.80
38912;BME280;28444;48.056;14.408;2022-07-12T11:52:15;98218.09;;;21.72;55.19
38912;BME280;28444;48.056;14.408;2022-07-12T11:54:47;98212.53;;;21.72;54.67
38912;BME280;28444;48.056;14.408;2022-07-12T11:57:14;98219.38;;;21.84;56.07
38912;BME280;28444;48.056;14.408;2022-07-12T11:59:41;98220.72;;;21.83;55.12
38912;BME280;28444;48.056;14.408;2022-07-12T12:02:11;98210.97;;;21.98;55.47
38912;BME280;28444;48.056;14.408;2022-07-12T12:04:52;98210.97;;;21.98;54.63
38912;BME280;28444;48.056;14.408;2022-07-12T12:07:21;98208.53;;;22.06;53.31
38912;BME280;28444;48.056;14.408;2022-07-12T12:10:05;98199.75;;;22.12;52.17
38912;BME280;28444;48.056;14.408;2022-07-12T12:12:52;98214.50;;;22.15;52.83
38912;BME280;28444;48.056;14.408;2022-07-12T12:15:22;98208.41;;;22.18;53.92
38912;BME280;28444;48.056;14.408;2022-07-12T12:18:03;98198.97;;;22.25;53.47
38912;BME280;28444;48.056;14.408;2022-07-12T12:20:33;98199.69;;;22.42;54.55
38912;BME280;28444;48.056;14.408;2022-07-12T12:23:02;98194.69;;;22.72;56.88
38912;BME280;28444;48.056;14.408;2022-07-12T12:25:29;98187.06;;;22.72;53.22
38912;BME280;28444;48.056;14.408;2022-07-12T12:27:59;98185.22;;;22.95;53.10
38912;BME280;28444;48.056;14.408;2022-07-12T12:30:52;98185.41;;;22.99;52.68
38912;BME280;28444;48.056;14.408;2022-07-12T12:33:39;98186.28;;;23.03;53.06
38912;BME280;28444;48.056;14.408;2022-07-12T12:39:00;98194.69;;;22.72;50.28
38912;BME280;28444;48.056;14.408;2022-07-12T12:41:38;98195.25;;;22.68;52.60
38912;BME280;28444;48.056;14.408;2022-07-12T12:44:06;98199.94;;;22.64;50.35
38912;BME280;28444;48.056;14.408;2022-07-12T12:46:53;98189.78;;;22.54;49.80
38912;BME280;28444;48.056;14.408;2022-07-12T12:49:45;98198.69;;;22.51;51.13
38912;BME280;28444;48.056;14.408;2022-07-12T12:52:19;98201.28;;;22.63;51.54
38912;BME280;28444;48.056;14.408;2022-07-12T12:54:46;98190.25;;;22.98;49.96
38912;BME280;28444;48.056;14.408;2022-07-12T12:57:12;98191.91;;;23.39;49.91
38912;BME280;28444;48.056;14.408;2022-07-12T12:59:39;98186.75;;;23.49;49.13
38912;BME280;28444;48.056;14.408;2022-07-12T13:02:07;98193.91;;;23.37;49.61
38912;BME280;28444;48.056;14.408;2022-07-12T13:04:36;98198.28;;;23.42;50.84
38912;BME280;28444;48.056;14.408;2022-07-12T13:07:03;98196.69;;;23.37;50.28
38912;BME280;28444;48.056;14.408;2022-07-12T13:09:38;98197.78;;;23.29;50.15
38912;BME280;28444;48.056;14.408;2022-07-12T13:12:05;98194.59;;;23.37;50.65